Time;durP1;ratioP1;P1;durP2;ratioP2;P2;SDS_P1;SDS_P2;PMS_P1;PMS_P2;Temp;Humidity;BMP_temperature;BMP_pressure;BME280_temperature;BME280_humidity;BME280_pressure;Samples;Min_cycle;Max_cycle;Signal;HPM_P1;HPM_P2
2021/07/08 00:00:58;;;;;;;4.90;4.50;;;20.10;99.90;;;;;;5077073;28;20458;-67
2021/07/08 00:03:26;;;;;;;4.30;4.00;;;20.10;99.90;;;;;;5076832;28;20450;-67
2021/07/08 00:05:54;;;;;;;5.50;4.30;;;20.10;99.90;;;;;;5076887;28;20466;-67
2021/07/08 00:08:22;;;;;;;4.60;4.30;;;20.00;99.90;;;;;;5076910;28;20793;-68
2021/07/08 00:10:52;;;;;;;5.33;4.70;;;20.00;99.90;;;;;;5077316;28;20458;-67
2021/07/08 00:13:22;;;;;;;4.97;4.40;;;20.00;99.90;;;;;;5076340;28;20960;-67
2021/07/08 00:15:50;;;;;;;4.17;3.87;;;19.90;99.90;;;;;;5076724;28;20541;-67
2021/07/08 00:18:20;;;;;;;5.03;4.53;;;19.90;99.90;;;;;;5076714;28;20464;-68
2021/07/08 00:20:48;;;;;;;4.90;4.40;;;19.90;99.90;;;;;;5076765;28;20470;-67
2021/07/08 00:23:17;;;;;;;5.67;5.17;;;19.90;99.90;;;;;;5076498;28;20528;-67
2021/07/08 00:25:48;;;;;;;5.30;4.90;;;19.80;99.90;;;;;;5076298;28;20991;-67
2021/07/08 00:28:15;;;;;;;7.90;5.20;;;19.80;99.90;;;;;;5076170;28;20474;-67
2021/07/08 00:30:43;;;;;;;5.43;5.03;;;19.70;99.90;;;;;;5076369;28;20516;-67
2021/07/08 00:33:11;;;;;;;5.70;5.10;;;19.70;99.90;;;;;;5076195;28;20450;-67
2021/07/08 00:35:39;;;;;;;4.80;4.40;;;19.70;99.90;;;;;;5075681;28;20791;-68
2021/07/08 00:38:06;;;;;;;5.10;4.70;;;19.70;99.90;;;;;;5076461;28;20454;-67
2021/07/08 00:40:34;;;;;;;6.70;4.83;;;19.70;99.90;;;;;;5075848;28;20961;-67
2021/07/08 00:43:02;;;;;;;5.20;4.70;;;19.60;99.90;;;;;;5075992;28;20454;-68
2021/07/08 00:45:29;;;;;;;5.03;4.67;;;19.60;99.90;;;;;;5076186;28;20458;-67
2021/07/08 00:47:57;;;;;;;6.03;5.63;;;19.60;99.90;;;;;;5075677;28;20818;-67
2021/07/08 00:50:26;;;;;;;5.57;5.07;;;19.60;99.90;;;;;;5076208;28;20454;-67
2021/07/08 00:52:53;;;;;;;5.10;4.70;;;19.50;99.90;;;;;;5075680;28;20462;-67
2021/07/08 00:55:20;;;;;;;5.87;5.33;;;19.50;99.90;;;;;;5075873;28;20516;-67
2021/07/08 00:57:53;;;;;;;6.40;5.80;;;19.50;99.90;;;;;;5075902;28;20833;-67
2021/07/08 01:00:24;;;;;;;5.70;5.23;;;19.50;99.90;;;;;;5075872;28;20469;-67
2021/07/08 01:02:51;;;;;;;6.50;6.00;;;19.50;99.90;;;;;;5075837;28;20442;-67
2021/07/08 01:05:19;;;;;;;6.23;5.73;;;19.40;99.90;;;;;;5075635;28;20783;-68
2021/07/08 01:07:46;;;;;;;6.23;5.70;;;19.40;99.90;;;;;;5075480;28;20465;-67
2021/07/08 01:10:13;;;;;;;6.60;6.10;;;19.40;99.90;;;;;;5075636;28;20454;-68
2021/07/08 01:12:40;;;;;;;6.70;6.20;;;19.40;99.90;;;;;;5075777;28;20459;-67
2021/07/08 01:15:09;;;;;;;6.70;6.03;;;19.40;99.90;;;;;;5075525;28;20486;-68
2021/07/08 01:17:37;;;;;;;7.33;6.53;;;19.30;99.90;;;;;;5075479;28;20455;-67
2021/07/08 01:20:06;;;;;;;6.63;6.13;;;19.30;99.90;;;;;;5075471;28;20465;-67
2021/07/08 01:22:34;;;;;;;6.33;5.83;;;19.30;99.90;;;;;;5075457;28;20469;-68
2021/07/08 01:25:01;;;;;;;7.07;6.47;;;19.30;99.90;;;;;;5075369;28;20891;-67
2021/07/08 01:27:28;;;;;;;6.80;6.13;;;19.20;99.90;;;;;;5075616;28;20520;-68
2021/07/08 01:29:55;;;;;;;7.27;6.70;;;19.20;99.90;;;;;;5075022;28;20458;-67
2021/07/08 01:32:23;;;;;;;6.67;5.83;;;19.20;99.90;;;;;;5075201;28;20458;-68
2021/07/08 01:34:50;;;;;;;6.83;6.30;;;19.20;99.90;;;;;;5075166;28;20595;-68
2021/07/08 01:37:17;;;;;;;5.67;5.27;;;19.20;99.90;;;;;;5075197;28;20466;-67
2021/07/08 01:39:46;;;;;;;7.13;6.53;;;19.20;99.90;;;;;;5075005;28;20462;-67
2021/07/08 01:42:13;;;;;;;8.10;6.30;;;19.20;99.90;;;;;;5075167;28;20481;-67
2021/07/08 01:44:40;;;;;;;6.57;6.00;;;19.20;99.90;;;;;;5074683;28;20903;-67
2021/07/08 01:47:07;;;;;;;6.60;6.00;;;19.20;99.90;;;;;;5074976;28;20477;-67
2021/07/08 01:49:34;;;;;;;7.80;6.10;;;19.20;99.90;;;;;;5074672;28;20970;-68
2021/07/08 01:52:01;;;;;;;6.53;6.03;;;19.20;99.90;;;;;;5074629;28;20791;-67
2021/07/08 01:54:28;;;;;;;9.87;6.23;;;19.20;99.90;;;;;;5074871;28;20482;-68
2021/07/08 01:56:56;;;;;;;6.37;5.87;;;19.20;99.90;;;;;;5074709;28;20458;-67
2021/07/08 01:59:22;;;;;;;7.40;5.90;;;19.20;99.90;;;;;;5074942;28;20485;-67
2021/07/08 02:01:49;;;;;;;7.70;6.13;;;19.20;99.90;;;;;;5074503;28;20458;-67
2021/07/08 02:04:16;;;;;;;6.57;6.07;;;19.20;99.90;;;;;;5074836;28;20454;-67
2021/07/08 02:06:44;;;;;;;6.83;6.07;;;19.20;99.90;;;;;;5074508;28;20458;-67
2021/07/08 02:09:11;;;;;;;6.27;5.70;;;19.20;99.90;;;;;;5074857;28;20458;-67
2021/07/08 02:11:38;;;;;;;6.70;5.83;;;19.20;99.90;;;;;;5074507;28;20461;-67
2021/07/08 02:14:06;;;;;;;6.23;5.73;;;19.10;99.90;;;;;;5074707;28;20478;-68
2021/07/08 02:16:33;;;;;;;6.40;5.90;;;19.10;99.90;;;;;;5074644;28;20469;-67
2021/07/08 02:19:00;;;;;;;6.40;5.80;;;19.10;99.90;;;;;;5074547;28;20467;-67
2021/07/08 02:21:27;;;;;;;7.07;6.47;;;19.10;99.90;;;;;;5074473;28;20460;-67
2021/07/08 02:23:53;;;;;;;6.77;6.27;;;19.00;99.90;;;;;;5074704;28;20458;-68
2021/07/08 02:26:20;;;;;;;6.33;5.90;;;19.10;99.90;;;;;;5074732;28;20469;-67
2021/07/08 02:28:47;;;;;;;6.50;6.00;;;19.10;99.90;;;;;;5074510;28;20458;-67
2021/07/08 02:31:15;;;;;;;6.17;5.60;;;19.00;99.90;;;;;;5074214;28;20926;-67
2021/07/08 02:33:42;;;;;;;6.03;5.53;;;19.10;99.90;;;;;;5074656;28;20465;-67
2021/07/08 02:36:09;;;;;;;6.13;5.63;;;19.10;99.90;;;;;;5074441;28;20462;-67
2021/07/08 02:38:37;;;;;;;8.03;5.53;;;19.10;99.90;;;;;;5074286;28;20934;-67
2021/07/08 02:41:05;;;;;;;6.03;5.50;;;19.10;99.90;;;;;;5074028;28;20454;-68
2021/07/08 02:43:32;;;;;;;5.43;5.03;;;19.20;99.90;;;;;;5074587;28;20466;-68
2021/07/08 02:45:58;;;;;;;6.20;5.67;;;19.20;99.90;;;;;;5074367;28;20461;-67
2021/07/08 02:48:27;;;;;;;7.07;6.37;;;19.20;99.90;;;;;;5073956;28;20483;-67
2021/07/08 02:50:58;;;;;;;6.77;6.27;;;19.20;99.90;;;;;;5074388;28;20911;-67
2021/07/08 02:53:25;;;;;;;6.70;6.00;;;19.20;99.90;;;;;;5074052;28;20438;-68
2021/07/08 02:55:52;;;;;;;6.07;5.47;;;19.20;99.90;;;;;;5073982;28;20478;-68
2021/07/08 02:58:19;;;;;;;5.93;5.47;;;19.20;99.90;;;;;;5075657;28;20458;-68
2021/07/08 03:00:49;;;;;;;6.20;5.60;;;19.10;99.90;;;;;;5078296;28;20458;-67
2021/07/08 03:03:16;;;;;;;6.13;5.40;;;19.10;99.90;;;;;;5077397;28;20464;-67
2021/07/08 03:05:45;;;;;;;6.37;5.87;;;19.00;99.90;;;;;;5077730;28;20461;-67
2021/07/08 03:08:12;;;;;;;6.03;5.60;;;19.00;99.90;;;;;;5077827;28;20454;-67
2021/07/08 03:10:40;;;;;;;5.87;5.40;;;19.00;99.90;;;;;;5077528;28;20918;-68
2021/07/08 03:13:06;;;;;;;5.77;5.27;;;19.00;99.90;;;;;;5077814;28;20464;-67
2021/07/08 03:15:33;;;;;;;5.40;4.90;;;19.00;99.90;;;;;;5077614;28;20560;-67
2021/07/08 03:18:00;;;;;;;5.37;4.97;;;18.90;99.90;;;;;;5077917;28;20469;-67
2021/07/08 03:20:30;;;;;;;6.20;5.73;;;19.00;99.90;;;;;;5077582;28;20457;-67
2021/07/08 03:22:58;;;;;;;5.67;5.17;;;19.00;99.90;;;;;;5077228;28;20454;-68
2021/07/08 03:25:27;;;;;;;4.97;4.57;;;19.00;99.90;;;;;;5077573;28;20454;-68
2021/07/08 03:27:56;;;;;;;5.93;5.43;;;19.00;99.90;;;;;;5077202;28;20919;-68
2021/07/08 03:30:24;;;;;;;5.63;5.23;;;18.90;99.90;;;;;;5077649;28;20922;-68
2021/07/08 03:32:53;;;;;;;5.97;5.50;;;19.00;99.90;;;;;;5077519;28;20480;-67
2021/07/08 03:35:19;;;;;;;6.00;5.00;;;19.00;99.90;;;;;;5077308;28;20603;-67
2021/07/08 03:37:46;;;;;;;5.50;5.00;;;19.00;99.90;;;;;;5077940;28;20462;-67
2021/07/08 03:40:15;;;;;;;6.10;5.50;;;19.00;99.90;;;;;;5077072;28;20458;-67
2021/07/08 03:42:44;;;;;;;5.50;5.10;;;19.00;99.90;;;;;;5077466;28;20511;-67
2021/07/08 03:45:12;;;;;;;6.40;5.27;;;19.00;99.90;;;;;;5076949;28;20450;-67
2021/07/08 03:47:39;;;;;;;5.93;5.40;;;19.00;99.90;;;;;;5076764;28;20954;-67
2021/07/08 03:50:08;;;;;;;5.37;4.87;;;19.00;99.90;;;;;;5077006;28;20454;-67
2021/07/08 03:52:35;;;;;;;5.60;5.20;;;19.00;99.90;;;;;;5077177;28;20841;-67
2021/07/08 03:55:01;;;;;;;5.07;4.60;;;19.00;99.90;;;;;;5077234;28;20481;-68
2021/07/08 03:57:32;;;;;;;5.60;5.10;;;19.10;99.90;;;;;;5076903;28;20462;-67
2021/07/08 03:59:58;;;;;;;5.47;5.07;;;19.20;99.90;;;;;;5076992;28;20442;-67
2021/07/08 04:02:25;;;;;;;6.10;5.53;;;19.20;99.90;;;;;;5076676;28;20465;-67
2021/07/08 04:04:52;;;;;;;5.47;5.07;;;19.30;99.90;;;;;;5076821;28;20782;-67
2021/07/08 04:07:21;;;;;;;5.30;4.80;;;19.30;99.90;;;;;;5077070;28;20455;-67
2021/07/08 04:09:47;;;;;;;5.10;4.70;;;19.30;99.90;;;;;;5076488;28;20477;-68
2021/07/08 04:12:14;;;;;;;5.43;5.00;;;19.40;99.90;;;;;;5076823;28;20535;-67
2021/07/08 04:14:42;;;;;;;6.43;5.03;;;19.50;99.90;;;;;;5076507;28;20491;-67
2021/07/08 04:17:09;;;;;;;5.17;4.77;;;19.50;99.90;;;;;;5076914;28;20481;-67
2021/07/08 04:19:35;;;;;;;5.23;4.83;;;19.60;99.90;;;;;;5076378;28;20465;-67
2021/07/08 04:22:02;;;;;;;5.17;4.77;;;19.70;99.90;;;;;;5076657;28;20465;-67
2021/07/08 04:24:29;;;;;;;5.30;4.80;;;19.70;99.90;;;;;;5076411;28;20458;-67
2021/07/08 04:26:55;;;;;;;7.60;5.00;;;19.80;99.90;;;;;;5076517;28;20469;-67
2021/07/08 04:29:22;;;;;;;5.57;5.07;;;19.80;99.90;;;;;;5076127;28;20488;-67
2021/07/08 04:31:50;;;;;;;5.53;5.13;;;19.80;99.90;;;;;;5076128;28;20462;-67
2021/07/08 04:34:19;;;;;;;5.17;4.77;;;19.90;99.90;;;;;;5076359;28;20458;-67
2021/07/08 04:36:47;;;;;;;4.70;4.33;;;19.90;99.90;;;;;;5076203;28;20841;-67
2021/07/08 04:39:14;;;;;;;6.30;4.60;;;19.90;99.90;;;;;;5076200;28;20493;-67
2021/07/08 04:41:41;;;;;;;4.87;4.47;;;19.90;99.90;;;;;;5076293;28;20458;-67
2021/07/08 04:44:08;;;;;;;5.57;5.00;;;19.90;99.90;;;;;;5076170;28;20454;-68
2021/07/08 04:46:34;;;;;;;5.70;5.27;;;20.00;99.90;;;;;;5076113;28;20477;-67
2021/07/08 04:49:02;;;;;;;5.30;4.80;;;20.00;99.90;;;;;;5076095;28;20485;-67
2021/07/08 04:51:29;;;;;;;5.57;5.13;;;20.00;99.90;;;;;;5076321;28;20462;-68
2021/07/08 04:53:56;;;;;;;5.53;5.03;;;20.10;99.90;;;;;;5076061;28;20454;-67
2021/07/08 04:56:22;;;;;;;5.53;5.13;;;20.10;99.90;;;;;;5075741;28;20478;-67
2021/07/08 04:58:49;;;;;;;5.20;4.70;;;20.20;99.90;;;;;;5075697;28;20477;-67
2021/07/08 05:01:16;;;;;;;4.80;4.50;;;20.30;98.90;;;;;;5075765;28;20462;-67
2021/07/08 05:03:42;;;;;;;7.27;6.57;;;20.30;91.30;;;;;;5075870;28;20465;-67
2021/07/08 05:06:10;;;;;;;83.10;62.80;;;20.40;77.30;;;;;;5075629;28;20927;-67
2021/07/08 05:08:38;;;;;;;10.83;9.80;;;20.50;67.50;;;;;;5075594;28;20454;-67
2021/07/08 05:11:08;;;;;;;8.10;7.40;;;20.60;67.30;;;;;;5075791;28;20464;-67
2021/07/08 05:13:35;;;;;;;8.77;7.97;;;20.60;50.20;;;;;;5075485;28;20473;-67
2021/07/08 05:16:01;;;;;;;6.33;5.80;;;20.70;42.80;;;;;;5075488;28;20497;-67
2021/07/08 05:18:28;;;;;;;6.50;5.90;;;20.70;28.70;;;;;;5075643;28;20454;-67
2021/07/08 05:20:55;;;;;;;7.80;5.43;;;20.70;25.10;;;;;;5075310;28;20469;-67
2021/07/08 05:23:26;;;;;;;5.87;5.40;;;20.80;22.30;;;;;;5075426;28;20469;-67
2021/07/08 05:25:53;;;;;;;6.73;5.73;;;20.80;18.50;;;;;;5075298;28;20439;-67
2021/07/08 05:28:20;;;;;;;5.83;5.33;;;20.90;16.30;;;;;;5075564;28;20455;-67
2021/07/08 05:30:47;;;;;;;5.87;5.37;;;21.00;14.10;;;;;;5075384;28;20458;-67
2021/07/08 05:33:14;;;;;;;5.60;5.20;;;21.00;1.00;;;;;;5075211;28;20911;-67
2021/07/08 05:35:41;;;;;;;5.00;4.60;;;21.00;1.30;;;;;;5075127;28;20482;-67
2021/07/08 05:38:07;;;;;;;6.57;5.67;;;21.10;1.00;;;;;;5075226;28;20472;-67
2021/07/08 05:40:36;;;;;;;5.60;5.10;;;21.20;1.00;;;;;;5075220;28;20549;-67
2021/07/08 05:43:03;;;;;;;5.90;5.40;;;21.30;1.00;;;;;;5075115;28;20482;-67
2021/07/08 05:45:31;;;;;;;5.23;4.83;;;21.40;1.00;;;;;;5075115;28;20462;-67
2021/07/08 05:47:58;;;;;;;5.27;4.80;;;21.40;1.00;;;;;;5074948;28;20486;-68
2021/07/08 05:50:25;;;;;;;8.03;4.90;;;21.50;1.00;;;;;;5075021;28;20472;-67
2021/07/08 05:52:51;;;;;;;10.33;4.10;;;21.60;1.00;;;;;;5074764;28;20524;-67
2021/07/08 05:55:19;;;;;;;5.53;5.03;;;21.50;1.00;;;;;;5074771;28;20482;-67
2021/07/08 05:57:49;;;;;;;6.80;4.10;;;21.60;1.00;;;;;;5074760;28;20455;-67
2021/07/08 06:00:18;;;;;;;5.00;4.60;;;21.60;1.00;;;;;;5075004;28;20523;-67
2021/07/08 06:02:45;;;;;;;4.53;4.10;;;21.70;1.00;;;;;;5074583;28;20461;-67
2021/07/08 06:05:12;;;;;;;4.17;3.87;;;21.70;1.00;;;;;;5074919;28;20454;-66
2021/07/08 06:07:39;;;;;;;6.27;4.93;;;21.80;1.00;;;;;;5075347;28;20473;-66
2021/07/08 06:10:07;;;;;;;6.13;4.00;;;21.80;1.00;;;;;;5074868;28;20458;-68
2021/07/08 06:12:35;;;;;;;4.20;3.80;;;21.90;1.00;;;;;;5074750;28;20485;-68
2021/07/08 06:15:04;;;;;;;4.60;3.60;;;21.90;1.00;;;;;;5074614;28;20488;-68
2021/07/08 06:17:33;;;;;;;4.93;4.20;;;22.00;1.00;;;;;;5075039;28;20898;-67
2021/07/08 06:20:01;;;;;;;4.50;4.07;;;22.00;1.00;;;;;;5074998;28;20462;-67
2021/07/08 06:22:29;;;;;;;4.20;3.70;;;22.00;1.00;;;;;;5074590;28;20518;-67
2021/07/08 06:24:59;;;;;;;4.20;3.80;;;22.00;1.00;;;;;;5074883;28;20489;-67
2021/07/08 06:27:26;;;;;;;11.60;4.60;;;22.00;1.00;;;;;;5074794;28;20465;-66
2021/07/08 06:29:52;;;;;;;11.07;4.40;;;22.00;1.00;;;;;;5074576;28;20458;-68
2021/07/08 06:32:20;;;;;;;4.93;4.40;;;22.00;1.00;;;;;;5074539;28;20454;-67
2021/07/08 06:34:47;;;;;;;4.63;4.23;;;22.00;1.00;;;;;;5078721;28;20466;-67
2021/07/08 06:37:17;;;;;;;4.00;3.70;;;22.00;1.00;;;;;;5078683;28;20490;-67
2021/07/08 06:39:43;;;;;;;4.93;4.47;;;22.00;1.00;;;;;;5078676;28;20492;-69
2021/07/08 06:42:10;;;;;;;4.60;4.00;;;22.10;1.00;;;;;;5078246;28;20458;-68
2021/07/08 06:44:37;;;;;;;6.90;3.93;;;22.00;1.00;;;;;;5078348;28;20824;-67
2021/07/08 06:47:04;;;;;;;29.57;26.17;;;22.00;1.00;;;;;;5078528;28;20528;-68
2021/07/08 06:49:34;;;;;;;6.70;6.20;;;22.00;1.00;;;;;;5078205;28;20477;-67
2021/07/08 06:52:01;;;;;;;5.83;5.33;;;22.00;1.00;;;;;;5078344;28;20511;-67
2021/07/08 06:54:28;;;;;;;6.67;6.00;;;22.00;1.00;;;;;;5078293;28;20462;-68
2021/07/08 06:56:54;;;;;;;5.60;5.10;;;21.90;1.00;;;;;;5078038;28;20496;-67
2021/07/08 06:59:21;;;;;;;6.07;5.47;;;22.00;1.00;;;;;;5078174;28;20530;-67
2021/07/08 07:01:48;;;;;;;5.70;5.17;;;22.00;1.00;;;;;;5078006;28;20561;-67
2021/07/08 07:04:14;;;;;;;5.10;4.70;;;22.00;1.00;;;;;;5078036;28;20937;-67
2021/07/08 07:06:43;;;;;;;6.37;4.60;;;22.10;1.00;;;;;;5077921;28;20465;-68
2021/07/08 07:09:09;;;;;;;11.77;5.20;;;22.00;1.00;;;;;;5078226;28;20465;-68
2021/07/08 07:11:36;;;;;;;6.00;4.40;;;22.00;1.00;;;;;;5077518;28;20453;-68
2021/07/08 07:14:03;;;;;;;5.90;4.63;;;22.00;1.00;;;;;;5078124;28;20458;-68
2021/07/08 07:16:30;;;;;;;4.80;4.40;;;22.00;1.00;;;;;;5078025;28;20798;-68
2021/07/08 07:18:56;;;;;;;6.60;4.90;;;22.00;1.00;;;;;;5078096;28;20454;-68
2021/07/08 07:21:23;;;;;;;5.20;4.30;;;22.10;1.00;;;;;;5077435;28;20937;-68
2021/07/08 07:23:51;;;;;;;5.03;4.13;;;22.10;1.00;;;;;;5077557;28;20466;-67
2021/07/08 07:26:21;;;;;;;4.57;4.20;;;22.10;1.00;;;;;;5077695;28;20450;-69
2021/07/08 07:28:48;;;;;;;4.87;4.30;;;22.10;1.00;;;;;;5077562;28;20454;-68
2021/07/08 07:31:15;;;;;;;4.83;3.50;;;22.10;1.00;;;;;;5077413;28;20469;-68
2021/07/08 07:33:43;;;;;;;4.50;4.10;;;22.10;1.00;;;;;;5077540;28;20489;-68
2021/07/08 07:36:10;;;;;;;5.33;3.90;;;22.10;1.00;;;;;;5077645;28;20473;-69
2021/07/08 07:38:37;;;;;;;4.27;3.77;;;22.10;1.00;;;;;;5077615;28;20461;-68
2021/07/08 07:41:06;;;;;;;4.10;3.63;;;22.10;1.00;;;;;;5078837;28;20453;-68
2021/07/08 07:43:32;;;;;;;7.27;3.90;;;22.10;1.00;;;;;;5077837;28;20462;-69
2021/07/08 07:45:59;;;;;;;5.40;3.83;;;22.10;1.00;;;;;;5077701;28;20454;-68
2021/07/08 07:48:26;;;;;;;4.30;3.80;;;22.10;1.00;;;;;;5077459;28;20809;-68
2021/07/08 07:50:53;;;;;;;6.33;3.33;;;22.00;1.00;;;;;;5077905;28;20458;-67
2021/07/08 07:53:20;;;;;;;4.37;3.97;;;22.00;1.00;;;;;;5077328;28;20462;-67
2021/07/08 07:55:48;;;;;;;5.43;4.80;;;22.00;1.00;;;;;;5077048;28;20474;-67
2021/07/08 07:58:16;;;;;;;7.80;3.90;;;21.90;1.00;;;;;;5077390;28;20496;-67
2021/07/08 08:00:43;;;;;;;4.87;4.20;;;21.90;1.00;;;;;;5077064;28;20469;-67
2021/07/08 08:03:09;;;;;;;4.40;4.00;;;21.90;1.00;;;;;;5076826;28;20944;-67
2021/07/08 08:05:43;;;;;;;6.10;5.50;;;21.90;1.00;;;;;;5076969;28;20458;-68
2021/07/08 08:08:28;;;;;;;7.97;6.07;;;21.90;1.00;;;;;;5077020;28;20452;-68
2021/07/08 08:10:56;;;;;;;5.20;4.70;;;21.90;1.00;;;;;;5077559;28;20442;-68
2021/07/08 08:13:25;;;;;;;4.17;3.77;;;21.80;1.00;;;;;;5077060;28;20535;-68
2021/07/08 08:15:53;;;;;;;7.90;4.00;;;21.80;1.00;;;;;;5076968;28;20481;-68
2021/07/08 08:18:21;;;;;;;4.10;3.70;;;21.80;1.00;;;;;;5076988;28;20558;-68
2021/07/08 08:20:48;;;;;;;3.40;3.20;;;21.80;1.00;;;;;;5076220;28;20536;-68
2021/07/08 08:23:15;;;;;;;4.60;4.30;;;21.80;1.00;;;;;;5076808;28;20786;-68
2021/07/08 08:25:42;;;;;;;4.63;4.23;;;21.80;1.00;;;;;;5076310;28;20949;-68
2021/07/08 08:28:09;;;;;;;3.97;3.63;;;21.80;1.00;;;;;;5076916;28;20454;-68
2021/07/08 08:30:38;;;;;;;5.60;4.00;;;21.90;1.00;;;;;;5076295;28;20461;-68
2021/07/08 08:33:05;;;;;;;4.80;4.10;;;21.80;1.00;;;;;;5076525;28;20457;-68
2021/07/08 08:35:32;;;;;;;8.30;5.40;;;21.90;1.00;;;;;;5076919;28;20481;-68
2021/07/08 08:37:59;;;;;;;4.47;4.07;;;21.90;1.00;;;;;;5076558;28;20481;-68
2021/07/08 08:40:25;;;;;;;7.20;4.27;;;21.90;1.00;;;;;;5076080;28;20458;-68
2021/07/08 08:42:52;;;;;;;9.10;4.20;;;21.90;1.00;;;;;;5076098;28;20454;-69
2021/07/08 08:45:19;;;;;;;4.70;4.07;;;22.00;1.00;;;;;;5076172;28;20458;-70
2021/07/08 08:48:01;;;;;;;4.63;4.23;;;21.90;1.00;;;;;;5076142;28;20504;-68
2021/07/08 08:50:29;;;;;;;3.40;3.20;;;22.00;1.00;;;;;;5076604;28;20825;-67
2021/07/08 08:52:56;;;;;;;4.73;4.33;;;22.00;1.00;;;;;;5076100;28;20462;-69
2021/07/08 08:55:23;;;;;;;5.00;3.97;;;22.00;1.00;;;;;;5075533;28;20458;-67
2021/07/08 08:57:50;;;;;;;7.83;3.97;;;22.00;1.00;;;;;;5075997;28;20478;-67
2021/07/08 09:00:37;;;;;;;3.90;3.60;;;22.00;1.00;;;;;;5075510;28;20463;-67
2021/07/08 09:03:06;;;;;;;4.77;3.53;;;22.00;1.00;;;;;;5075795;28;20901;-66
2021/07/08 09:05:34;;;;;;;4.03;3.63;;;22.10;1.00;;;;;;5075610;28;20464;-67
2021/07/08 09:08:10;;;;;;;5.00;3.70;;;22.10;1.00;;;;;;5076038;28;20457;-67
2021/07/08 09:10:37;;;;;;;7.13;4.70;;;22.20;1.00;;;;;;5075792;28;20446;-67
2021/07/08 09:13:05;;;;;;;4.70;4.30;;;22.40;1.00;;;;;;5075574;28;20458;-67
2021/07/08 09:15:32;;;;;;;4.80;3.90;;;22.50;1.00;;;;;;5075734;28;20606;-67
2021/07/08 09:17:59;;;;;;;4.57;4.13;;;22.60;1.00;;;;;;5075559;28;20482;-67
2021/07/08 09:20:27;;;;;;;4.70;3.53;;;22.70;1.00;;;;;;5076189;28;20533;-67
2021/07/08 09:23:09;;;;;;;4.57;3.70;;;22.90;1.00;;;;;;5075621;28;20489;-67
2021/07/08 09:25:36;;;;;;;3.53;3.33;;;23.10;1.00;;;;;;5075573;28;20454;-68
2021/07/08 09:28:15;;;;;;;3.47;3.00;;;23.30;1.00;;;;;;5075460;28;20776;-67
2021/07/08 09:30:43;;;;;;;3.67;3.30;;;23.50;99.90;;;;;;5075524;28;20470;-66
2021/07/08 09:33:31;;;;;;;3.47;3.17;;;23.70;99.90;;;;;;5075102;28;20455;-67
2021/07/08 09:36:11;;;;;;;4.40;2.90;;;23.90;99.90;;;;;;5075441;28;20458;-67
2021/07/08 09:38:40;;;;;;;3.50;2.87;;;24.10;1.00;;;;;;5076085;28;20449;-67
2021/07/08 09:41:09;;;;;;;3.03;2.83;;;24.30;12.30;;;;;;5075550;28;20553;-67
2021/07/08 09:43:38;;;;;;;2.90;2.47;;;24.40;1.00;;;;;;5075540;28;20458;-67
2021/07/08 09:46:05;;;;;;;2.63;2.43;;;24.50;1.00;;;;;;5075150;28;20519;-67
2021/07/08 09:48:32;;;;;;;3.00;2.70;;;24.50;99.90;;;;;;5074858;28;20490;-67
2021/07/08 09:50:59;;;;;;;7.80;2.60;;;24.60;1.00;;;;;;5075257;28;20740;-68
2021/07/08 09:53:29;;;;;;;2.17;1.97;;;24.60;1.00;;;;;;5075020;28;20466;-67
2021/07/08 09:56:04;;;;;;;2.77;2.43;;;24.50;1.00;;;;;;5075063;28;20454;-67
2021/07/08 09:58:32;;;;;;;3.03;2.30;;;24.50;1.00;;;;;;5075100;28;20446;-67
2021/07/08 10:01:11;;;;;;;2.70;2.17;;;24.60;1.00;;;;;;5075040;28;20845;-67
2021/07/08 10:03:38;;;;;;;4.37;2.00;;;24.70;1.00;;;;;;5075199;28;20446;-68
2021/07/08 10:06:05;;;;;;;2.50;2.30;;;24.70;99.90;;;;;;5075055;28;20485;-67
2021/07/08 10:08:35;;;;;;;3.57;2.57;;;24.80;99.90;;;;;;5074066;28;20519;-67
2021/07/08 10:11:02;;;;;;;3.80;2.20;;;24.80;99.90;;;;;;5074643;28;20466;-67
2021/07/08 10:13:29;;;;;;;3.40;2.60;;;24.90;99.90;;;;;;5074978;28;20515;-67
2021/07/08 10:15:56;;;;;;;3.03;2.30;;;25.00;99.90;;;;;;5074494;28;20466;-67
2021/07/08 10:18:25;;;;;;;3.40;2.40;;;25.10;99.90;;;;;;5075287;28;20478;-67
2021/07/08 10:20:56;;;;;;;2.50;2.30;;;25.10;99.90;;;;;;5074283;28;20465;-68
2021/07/08 10:23:23;;;;;;;3.60;2.30;;;25.10;99.90;;;;;;5075368;28;20442;-67
2021/07/08 10:25:52;;;;;;;2.87;2.10;;;25.00;26.90;;;;;;5074747;28;20454;-68
2021/07/08 10:28:19;;;;;;;2.60;2.40;;;24.90;19.70;;;;;;5074711;28;20454;-67
2021/07/08 10:30:50;;;;;;;3.73;2.60;;;24.80;1.00;;;;;;5074515;28;20462;-67
2021/07/08 10:33:19;;;;;;;4.80;4.00;;;24.70;85.80;;;;;;5074935;28;20442;-67
2021/07/08 10:35:47;;;;;;;3.53;3.23;;;24.50;54.30;;;;;;5074682;28;20756;-67
2021/07/08 10:38:30;;;;;;;5.00;2.80;;;24.40;99.90;;;;;;5075121;28;20808;-67
2021/07/08 10:41:01;;;;;;;4.37;3.77;;;24.20;99.90;;;;;;5075143;28;20442;-67
2021/07/08 10:43:34;;;;;;;4.67;4.00;;;24.10;99.90;;;;;;5075130;28;20530;-68
2021/07/08 10:46:02;;;;;;;4.70;4.00;;;24.00;1.00;;;;;;5074738;28;20443;-67
2021/07/08 10:48:39;;;;;;;3.83;2.80;;;23.90;99.90;;;;;;5073786;28;20481;-67
2021/07/08 10:51:07;;;;;;;3.00;2.80;;;23.90;99.90;;;;;;5074522;28;20826;-68
2021/07/08 10:53:35;;;;;;;3.60;2.10;;;23.90;1.00;;;;;;5074556;28;20469;-66
2021/07/08 10:56:05;;;;;;;2.50;2.30;;;23.90;1.00;;;;;;5073947;28;20462;-68
2021/07/08 10:58:47;;;;;;;3.40;2.77;;;23.90;1.00;;;;;;5073894;28;20510;-68
2021/07/08 11:01:46;;;;;;;2.63;2.43;;;23.90;99.90;;;;;;5074695;28;20453;-68
2021/07/08 11:04:36;;;;;;;2.70;2.50;;;23.90;99.90;;;;;;5075052;28;20443;-68
2021/07/08 11:07:14;;;;;;;3.90;2.90;;;23.90;99.90;;;;;;5073805;28;20533;-66
2021/07/08 11:09:55;;;;;;;7.70;3.10;;;23.90;99.90;;;;;;5074545;28;20442;-67
2021/07/08 11:12:32;;;;;;;2.50;2.30;;;23.90;99.90;;;;;;5074045;28;20438;-66
2021/07/08 11:15:00;;;;;;;3.20;2.90;;;23.90;99.90;;;;;;5073869;28;20449;-67
2021/07/08 11:17:27;;;;;;;3.83;2.67;;;24.00;1.00;;;;;;5074117;28;20519;-67
2021/07/08 11:19:56;;;;;;;3.03;2.73;;;24.00;99.90;;;;;;5076338;28;20454;-67
2021/07/08 11:22:37;;;;;;;3.40;2.60;;;24.00;99.90;;;;;;5077687;28;20964;-67
2021/07/08 11:25:07;;;;;;;3.03;2.70;;;24.00;99.90;;;;;;5077949;28;20790;-67
2021/07/08 11:27:38;;;;;;;4.27;3.73;;;24.00;99.90;;;;;;5077706;28;20434;-67
2021/07/08 11:30:25;;;;;;;3.73;3.00;;;24.00;99.90;;;;;;5077745;28;20470;-67
2021/07/08 11:32:54;;;;;;;3.37;3.07;;;24.00;99.90;;;;;;5077287;28;20485;-67
2021/07/08 11:35:24;;;;;;;5.30;2.47;;;24.00;99.90;;;;;;5077134;28;20453;-67
2021/07/08 11:37:56;;;;;;;3.17;2.80;;;23.90;99.90;;;;;;5077356;28;20472;-68
2021/07/08 11:40:23;;;;;;;3.40;3.20;;;23.90;1.00;;;;;;5077394;28;20454;-67
2021/07/08 11:42:53;;;;;;;3.30;3.00;;;23.90;1.00;;;;;;5077315;28;20458;-68
2021/07/08 11:45:22;;;;;;;2.70;2.40;;;23.80;1.00;;;;;;5077017;28;20472;-68
2021/07/08 11:47:50;;;;;;;3.17;2.97;;;23.80;1.00;;;;;;5078250;28;20477;-67
2021/07/08 11:50:22;;;;;;;3.40;2.70;;;23.80;1.00;;;;;;5078538;28;20443;-68
2021/07/08 11:52:50;;;;;;;3.30;3.10;;;23.80;1.00;;;;;;5078575;28;20794;-67
2021/07/08 11:55:29;;;;;;;2.87;2.57;;;23.70;1.00;;;;;;5078017;28;20462;-68
2021/07/08 11:58:00;;;;;;;3.60;3.30;;;23.70;1.00;;;;;;5077249;28;20553;-69
2021/07/08 12:00:28;;;;;;;5.50;2.77;;;23.60;1.00;;;;;;5077330;28;20446;-68
2021/07/08 12:02:55;;;;;;;3.37;3.17;;;23.50;1.00;;;;;;5077388;28;20455;-67
2021/07/08 12:05:22;;;;;;;3.60;3.13;;;23.50;1.00;;;;;;5077139;28;20466;-67
2021/07/08 12:07:53;;;;;;;6.60;2.87;;;23.40;1.00;;;;;;5077392;28;20455;-68
2021/07/08 12:10:24;;;;;;;3.37;3.07;;;23.40;45.90;;;;;;5078479;28;20744;-67
2021/07/08 12:12:53;;;;;;;2.93;2.73;;;23.30;99.90;;;;;;5077698;28;20438;-68
2021/07/08 12:15:22;;;;;;;3.73;3.07;;;23.30;1.00;;;;;;5077521;28;20493;-67
2021/07/08 12:17:53;;;;;;;3.57;3.27;;;23.30;99.90;;;;;;5077163;28;20565;-68
2021/07/08 12:20:20;;;;;;;3.40;3.10;;;23.20;99.90;;;;;;5077566;28;20459;-66
2021/07/08 12:22:58;;;;;;;7.77;5.00;;;23.20;1.00;;;;;;5077346;28;20489;-67
2021/07/08 12:25:26;;;;;;;5.00;4.60;;;23.10;99.90;;;;;;5077338;28;20458;-67
2021/07/08 12:27:54;;;;;;;3.20;2.90;;;23.10;1.00;;;;;;5077048;28;20450;-68
2021/07/08 12:30:24;;;;;;;3.13;2.83;;;23.20;1.00;;;;;;5076045;28;20454;-68
2021/07/08 12:33:04;;;;;;;3.70;3.17;;;23.10;99.90;;;;;;5077025;28;20788;-67
2021/07/08 12:35:38;;;;;;;3.90;3.50;;;23.10;71.80;;;;;;5076545;28;20450;-68
2021/07/08 12:38:05;;;;;;;3.40;3.20;;;23.10;99.90;;;;;;5076035;28;20474;-67
2021/07/08 12:40:32;;;;;;;4.63;3.57;;;23.10;99.90;;;;;;5076465;28;20461;-67
2021/07/08 12:43:06;;;;;;;4.17;3.87;;;23.10;99.90;;;;;;5076095;28;20450;-66
2021/07/08 12:45:35;;;;;;;3.50;3.20;;;23.10;99.90;;;;;;5076341;28;20770;-68
2021/07/08 12:48:02;;;;;;;3.63;3.33;;;23.00;99.90;;;;;;5076170;28;20522;-67
2021/07/08 12:50:34;;;;;;;3.53;3.23;;;23.00;99.90;;;;;;5076183;28;20825;-67
2021/07/08 12:53:00;;;;;;;3.40;3.10;;;23.00;1.00;;;;;;5076321;28;20743;-67
2021/07/08 12:55:45;;;;;;;3.40;3.20;;;23.00;99.90;;;;;;5075868;28;20465;-67
2021/07/08 12:58:16;;;;;;;3.83;3.43;;;23.00;99.90;;;;;;5076031;28;20488;-67